LHSM/SOB METAR and TAF weather

Enter ICAO airport designator
Station Type Date Time Source
LHSM METAR 2020/07/04 09:15 UTC NOAA

LHSM 040915Z AUTO 01009KT 330V050 CAVOK 25/11 Q1018 NOSIG


Station Type Date Time Source
LHSM Decoded METAR 2020/07/04 09:15 UTC NOAA

Station name not available
Jul 04, 2020 - 05:15 AM EDT / 2020.07.04 0915 UTC
Wind: from the N (010 degrees) at 10 MPH (9 KT) (direction variable):0
Visibility: greater than 7 mile(s):0
Temperature: 77 F (25 C)
Dew Point: 51 F (11 C)
Relative Humidity: 41%
Pressure (altimeter): 30.06 in. Hg (1018 hPa)
ob: LHSM 040915Z AUTO 01009KT 330V050 CAVOK 25/11 Q1018 NOSIG
cycle: 9

Station Type Date Time Source
LHSM TAF UTC NOAA

Error!

Example: see airport list